sensor_id;sensor_type;location;lat;lon;timestamp;temperature;humidity
20325;DHT22;10320;49.482;11.256;2022-10-16T00:01:59;15.00;99.90
20325;DHT22;10320;49.482;11.256;2022-10-16T00:04:25;15.00;99.90
20325;DHT22;10320;49.482;11.256;2022-10-16T00:06:50;15.00;99.90
20325;DHT22;10320;49.482;11.256;2022-10-16T00:09:16;15.00;99.90
20325;DHT22;10320;49.482;11.256;2022-10-16T00:11:41;15.00;99.90
20325;DHT22;10320;49.482;11.256;2022-10-16T00:16:56;15.00;99.90
20325;DHT22;10320;49.482;11.256;2022-10-16T00:19:21;14.90;99.90
20325;DHT22;10320;49.482;11.256;2022-10-16T00:21:47;14.90;99.90
20325;DHT22;10320;49.482;11.256;2022-10-16T00:24:13;14.90;99.90
20325;DHT22;10320;49.482;11.256;2022-10-16T00:26:39;14.90;99.90
20325;DHT22;10320;49.482;11.256;2022-10-16T00:29:07;14.90;99.90
20325;DHT22;10320;49.482;11.256;2022-10-16T00:31:32;14.90;99.90
20325;DHT22;10320;49.482;11.256;2022-10-16T00:33:58;14.90;99.90
20325;DHT22;10320;49.482;11.256;2022-10-16T00:36:26;14.90;99.90
20325;DHT22;10320;49.482;11.256;2022-10-16T00:38:56;14.90;99.90
20325;DHT22;10320;49.482;11.256;2022-10-16T00:41:25;14.90;99.90
20325;DHT22;10320;49.482;11.256;2022-10-16T00:43:53;14.90;99.90
20325;DHT22;10320;49.482;11.256;2022-10-16T00:46:39;14.90;99.90
20325;DHT22;10320;49.482;11.256;2022-10-16T00:49:14;14.90;99.90
20325;DHT22;10320;49.482;11.256;2022-10-16T00:51:51;14.90;99.90
20325;DHT22;10320;49.482;11.256;2022-10-16T00:54:19;14.90;99.90
20325;DHT22;10320;49.482;11.256;2022-10-16T00:56:47;14.90;99.90
20325;DHT22;10320;49.482;11.256;2022-10-16T00:59:35;14.90;99.90
20325;DHT22;10320;49.482;11.256;2022-10-16T01:02:02;14.80;99.90
20325;DHT22;10320;49.482;11.256;2022-10-16T01:04:34;14.80;99.90
20325;DHT22;10320;49.482;11.256;2022-10-16T01:07:13;14.80;99.90
20325;DHT22;10320;49.482;11.256;2022-10-16T01:09:57;14.80;99.90
20325;DHT22;10320;49.482;11.256;2022-10-16T01:12:47;14.80;99.90
20325;DHT22;10320;49.482;11.256;2022-10-16T01:15:32;14.80;99.90
20325;DHT22;10320;49.482;11.256;2022-10-16T01:18:27;14.80;99.90
20325;DHT22;10320;49.482;11.256;2022-10-16T01:21:05;14.80;99.90
20325;DHT22;10320;49.482;11.256;2022-10-16T01:29:14;14.70;99.90
20325;DHT22;10320;49.482;11.256;2022-10-16T01:31:54;14.70;99.90
20325;DHT22;10320;49.482;11.256;2022-10-16T01:34:25;14.70;99.90
20325;DHT22;10320;49.482;11.256;2022-10-16T01:36:57;14.70;99.90
20325;DHT22;10320;49.482;11.256;2022-10-16T01:39:30;14.70;99.90
20325;DHT22;10320;49.482;11.256;2022-10-16T01:42:06;14.70;99.90
20325;DHT22;10320;49.482;11.256;2022-10-16T01:44:34;14.70;99.90
20325;DHT22;10320;49.482;11.256;2022-10-16T01:47:02;14.80;99.90
20325;DHT22;10320;49.482;11.256;2022-10-16T01:49:32;14.80;99.90
20325;DHT22;10320;49.482;11.256;2022-10-16T01:52:00;14.70;99.90
20325;DHT22;10320;49.482;11.256;2022-10-16T01:54:29;14.80;99.90
20325;DHT22;10320;49.482;11.256;2022-10-16T01:56:57;14.80;99.90
20325;DHT22;10320;49.482;11.256;2022-10-16T01:59:25;14.80;99.90
20325;DHT22;10320;49.482;11.256;2022-10-16T02:02:00;14.80;99.90
20325;DHT22;10320;49.482;11.256;2022-10-16T02:04:33;14.80;99.90
20325;DHT22;10320;49.482;11.256;2022-10-16T02:06:59;14.80;99.90
20325;DHT22;10320;49.482;11.256;2022-10-16T02:09:26;14.80;99.90
20325;DHT22;10320;49.482;11.256;2022-10-16T02:11:54;14.80;99.90
20325;DHT22;10320;49.482;11.256;2022-10-16T02:14:21;14.80;99.90
20325;DHT22;10320;49.482;11.256;2022-10-16T02:16:50;14.80;99.90
20325;DHT22;10320;49.482;11.256;2022-10-16T02:19:17;14.80;99.90
20325;DHT22;10320;49.482;11.256;2022-10-16T02:21:55;14.80;99.90
20325;DHT22;10320;49.482;11.256;2022-10-16T02:27:06;14.90;99.90
20325;DHT22;10320;49.482;11.256;2022-10-16T02:29:42;14.90;99.90
20325;DHT22;10320;49.482;11.256;2022-10-16T02:32:16;14.90;99.90
20325;DHT22;10320;49.482;11.256;2022-10-16T02:34:44;14.90;99.90
20325;DHT22;10320;49.482;11.256;2022-10-16T02:37:10;14.90;99.90
20325;DHT22;10320;49.482;11.256;2022-10-16T02:39:36;14.90;99.90
20325;DHT22;10320;49.482;11.256;2022-10-16T02:42:03;14.90;99.90
20325;DHT22;10320;49.482;11.256;2022-10-16T02:44:29;14.90;99.90
20325;DHT22;10320;49.482;11.256;2022-10-16T02:46:55;14.90;99.90
20325;DHT22;10320;49.482;11.256;2022-10-16T02:49:21;14.90;99.90
20325;DHT22;10320;49.482;11.256;2022-10-16T02:51:46;14.80;99.90
20325;DHT22;10320;49.482;11.256;2022-10-16T02:54:12;14.90;99.90
20325;DHT22;10320;49.482;11.256;2022-10-16T02:56:38;14.90;99.90
20325;DHT22;10320;49.482;11.256;2022-10-16T02:59:04;14.90;99.90
20325;DHT22;10320;49.482;11.256;2022-10-16T03:01:29;14.90;99.90
20325;DHT22;10320;49.482;11.256;2022-10-16T03:03:55;14.90;99.90
20325;DHT22;10320;49.482;11.256;2022-10-16T03:06:21;14.90;99.90
20325;DHT22;10320;49.482;11.256;2022-10-16T03:08:46;14.90;99.90
20325;DHT22;10320;49.482;11.256;2022-10-16T03:11:12;14.90;99.90
20325;DHT22;10320;49.482;11.256;2022-10-16T03:13:38;14.90;99.90
20325;DHT22;10320;49.482;11.256;2022-10-16T03:16:03;14.90;99.90
20325;DHT22;10320;49.482;11.256;2022-10-16T03:18:29;14.90;99.90
20325;DHT22;10320;49.482;11.256;2022-10-16T03:20:54;14.90;99.90
20325;DHT22;10320;49.482;11.256;2022-10-16T03:23:23;14.90;99.90
20325;DHT22;10320;49.482;11.256;2022-10-16T03:25:54;14.90;99.90
20325;DHT22;10320;49.482;11.256;2022-10-16T03:28:20;14.90;99.90
20325;DHT22;10320;49.482;11.256;2022-10-16T03:30:46;14.90;99.90
20325;DHT22;10320;49.482;11.256;2022-10-16T03:33:12;14.90;99.90
20325;DHT22;10320;49.482;11.256;2022-10-16T03:35:37;14.90;99.90
20325;DHT22;10320;49.482;11.256;2022-10-16T03:38:03;14.90;99.90
20325;DHT22;10320;49.482;11.256;2022-10-16T03:40:29;14.90;99.90
20325;DHT22;10320;49.482;11.256;2022-10-16T03:42:56;14.90;99.90
20325;DHT22;10320;49.482;11.256;2022-10-16T03:45:22;14.90;99.90
20325;DHT22;10320;49.482;11.256;2022-10-16T03:47:48;14.90;99.90
20325;DHT22;10320;49.482;11.256;2022-10-16T03:50:14;14.80;99.90
20325;DHT22;10320;49.482;11.256;2022-10-16T03:52:39;14.90;99.90
20325;DHT22;10320;49.482;11.256;2022-10-16T03:55:06;14.90;99.90
20325;DHT22;10320;49.482;11.256;2022-10-16T03:57:31;14.90;99.90
20325;DHT22;10320;49.482;11.256;2022-10-16T03:59:57;14.90;99.90
20325;DHT22;10320;49.482;11.256;2022-10-16T04:02:22;14.90;99.90
20325;DHT22;10320;49.482;11.256;2022-10-16T04:04:48;14.90;99.90
20325;DHT22;10320;49.482;11.256;2022-10-16T04:07:14;14.90;99.90
20325;DHT22;10320;49.482;11.256;2022-10-16T04:09:39;14.90;99.90
20325;DHT22;10320;49.482;11.256;2022-10-16T04:12:05;14.90;99.90
20325;DHT22;10320;49.482;11.256;2022-10-16T04:14:31;14.90;99.90
20325;DHT22;10320;49.482;11.256;2022-10-16T04:16:56;14.90;99.90
20325;DHT22;10320;49.482;11.256;2022-10-16T04:19:22;14.90;99.90
20325;DHT22;10320;49.482;11.256;2022-10-16T04:21:48;14.90;99.90
20325;DHT22;10320;49.482;11.256;2022-10-16T04:24:13;14.90;99.90
20325;DHT22;10320;49.482;11.256;2022-10-16T04:26:39;14.90;99.90
20325;DHT22;10320;49.482;11.256;2022-10-16T04:29:04;14.90;99.90
20325;DHT22;10320;49.482;11.256;2022-10-16T04:31:31;14.90;99.90
20325;DHT22;10320;49.482;11.256;2022-10-16T04:33:57;14.90;99.90
20325;DHT22;10320;49.482;11.256;2022-10-16T04:36:22;14.90;99.90
20325;DHT22;10320;49.482;11.256;2022-10-16T04:38:48;14.90;99.90
20325;DHT22;10320;49.482;11.256;2022-10-16T04:41:13;14.90;99.90
20325;DHT22;10320;49.482;11.256;2022-10-16T04:43:39;14.90;99.90
20325;DHT22;10320;49.482;11.256;2022-10-16T04:46:05;14.90;99.90
20325;DHT22;10320;49.482;11.256;2022-10-16T04:48:31;14.90;99.90
20325;DHT22;10320;49.482;11.256;2022-10-16T04:50:57;14.80;99.90
20325;DHT22;10320;49.482;11.256;2022-10-16T04:53:22;14.80;99.90
20325;DHT22;10320;49.482;11.256;2022-10-16T04:55:48;14.80;99.90
20325;DHT22;10320;49.482;11.256;2022-10-16T04:58:14;14.80;99.90
20325;DHT22;10320;49.482;11.256;2022-10-16T05:00:40;14.80;99.90
20325;DHT22;10320;49.482;11.256;2022-10-16T05:03:05;14.80;99.90
20325;DHT22;10320;49.482;11.256;2022-10-16T05:05:34;14.80;99.90
20325;DHT22;10320;49.482;11.256;2022-10-16T05:08:00;14.80;99.90
20325;DHT22;10320;49.482;11.256;2022-10-16T05:10:26;14.80;99.90
20325;DHT22;10320;49.482;11.256;2022-10-16T05:12:51;14.70;99.90
20325;DHT22;10320;49.482;11.256;2022-10-16T05:15:17;14.70;99.90
20325;DHT22;10320;49.482;11.256;2022-10-16T05:17:43;14.70;99.90
20325;DHT22;10320;49.482;11.256;2022-10-16T05:20:10;14.70;99.90
20325;DHT22;10320;49.482;11.256;2022-10-16T05:22:35;14.70;99.90
20325;DHT22;10320;49.482;11.256;2022-10-16T05:25:01;14.70;99.90
20325;DHT22;10320;49.482;11.256;2022-10-16T05:27:27;14.70;99.90
20325;DHT22;10320;49.482;11.256;2022-10-16T05:29:52;14.60;99.90
20325;DHT22;10320;49.482;11.256;2022-10-16T05:32:19;14.60;99.90
20325;DHT22;10320;49.482;11.256;2022-10-16T05:34:45;14.60;99.90
20325;DHT22;10320;49.482;11.256;2022-10-16T05:37:11;14.60;99.90
20325;DHT22;10320;49.482;11.256;2022-10-16T05:39:40;14.50;99.90
20325;DHT22;10320;49.482;11.256;2022-10-16T05:42:06;14.50;99.90
20325;DHT22;10320;49.482;11.256;2022-10-16T05:44:32;14.40;99.90
20325;DHT22;10320;49.482;11.256;2022-10-16T05:46:57;14.40;99.90
20325;DHT22;10320;49.482;11.256;2022-10-16T05:49:23;14.40;99.90
20325;DHT22;10320;49.482;11.256;2022-10-16T05:51:49;14.40;99.90
20325;DHT22;10320;49.482;11.256;2022-10-16T05:54:14;14.40;99.90
20325;DHT22;10320;49.482;11.256;2022-10-16T05:56:40;14.40;99.90
20325;DHT22;10320;49.482;11.256;2022-10-16T05:59:05;14.40;99.90
20325;DHT22;10320;49.482;11.256;2022-10-16T06:01:31;14.30;99.90
20325;DHT22;10320;49.482;11.256;2022-10-16T06:03:57;14.50;99.90
20325;DHT22;10320;49.482;11.256;2022-10-16T06:06:26;14.50;99.90
20325;DHT22;10320;49.482;11.256;2022-10-16T06:08:54;14.60;99.90
20325;DHT22;10320;49.482;11.256;2022-10-16T06:11:22;14.60;99.90
20325;DHT22;10320;49.482;11.256;2022-10-16T06:13:52;14.60;99.90
20325;DHT22;10320;49.482;11.256;2022-10-16T06:16:19;14.60;99.90
20325;DHT22;10320;49.482;11.256;2022-10-16T06:18:45;14.70;99.90
20325;DHT22;10320;49.482;11.256;2022-10-16T06:21:19;14.80;99.90
20325;DHT22;10320;49.482;11.256;2022-10-16T06:23:46;14.80;99.90
20325;DHT22;10320;49.482;11.256;2022-10-16T06:26:14;14.90;99.90
20325;DHT22;10320;49.482;11.256;2022-10-16T06:28:40;14.90;99.90
20325;DHT22;10320;49.482;11.256;2022-10-16T06:31:08;15.00;99.90
20325;DHT22;10320;49.482;11.256;2022-10-16T06:33:35;15.10;99.90
20325;DHT22;10320;49.482;11.256;2022-10-16T06:36:09;15.10;99.90
20325;DHT22;10320;49.482;11.256;2022-10-16T06:38:36;15.20;99.90
20325;DHT22;10320;49.482;11.256;2022-10-16T06:41:02;15.30;99.90
20325;DHT22;10320;49.482;11.256;2022-10-16T06:43:29;15.30;99.90
20325;DHT22;10320;49.482;11.256;2022-10-16T06:45:58;15.50;99.90
20325;DHT22;10320;49.482;11.256;2022-10-16T06:48:24;15.50;99.90
20325;DHT22;10320;49.482;11.256;2022-10-16T06:51:04;15.60;99.90
20325;DHT22;10320;49.482;11.256;2022-10-16T06:53:32;15.70;99.90
20325;DHT22;10320;49.482;11.256;2022-10-16T06:56:05;15.80;99.90
20325;DHT22;10320;49.482;11.256;2022-10-16T06:58:31;16.00;99.90
20325;DHT22;10320;49.482;11.256;2022-10-16T07:00:57;16.00;99.90
20325;DHT22;10320;49.482;11.256;2022-10-16T07:03:22;16.00;99.90
20325;DHT22;10320;49.482;11.256;2022-10-16T07:05:48;16.00;99.90
20325;DHT22;10320;49.482;11.256;2022-10-16T07:08:14;16.00;99.90
20325;DHT22;10320;49.482;11.256;2022-10-16T07:10:39;16.00;99.90
20325;DHT22;10320;49.482;11.256;2022-10-16T07:13:05;16.00;99.90
20325;DHT22;10320;49.482;11.256;2022-10-16T07:15:32;16.00;99.90
20325;DHT22;10320;49.482;11.256;2022-10-16T07:17:58;15.90;99.90
20325;DHT22;10320;49.482;11.256;2022-10-16T07:20:24;16.00;99.90
20325;DHT22;10320;49.482;11.256;2022-10-16T07:22:50;16.00;99.90
20325;DHT22;10320;49.482;11.256;2022-10-16T07:25:16;16.10;99.90
20325;DHT22;10320;49.482;11.256;2022-10-16T07:27:42;16.10;99.90
20325;DHT22;10320;49.482;11.256;2022-10-16T07:30:08;16.20;99.90
20325;DHT22;10320;49.482;11.256;2022-10-16T07:32:33;16.30;99.90
20325;DHT22;10320;49.482;11.256;2022-10-16T07:34:59;16.40;99.90
20325;DHT22;10320;49.482;11.256;2022-10-16T07:37:25;16.40;99.90
20325;DHT22;10320;49.482;11.256;2022-10-16T07:39:50;16.50;99.90
20325;DHT22;10320;49.482;11.256;2022-10-16T07:42:16;16.50;99.90
20325;DHT22;10320;49.482;11.256;2022-10-16T07:44:42;16.50;99.90
20325;DHT22;10320;49.482;11.256;2022-10-16T07:47:08;16.50;99.90
20325;DHT22;10320;49.482;11.256;2022-10-16T07:49:34;16.50;99.90
20325;DHT22;10320;49.482;11.256;2022-10-16T07:51:59;16.50;99.90
20325;DHT22;10320;49.482;11.256;2022-10-16T07:54:25;16.50;99.90
20325;DHT22;10320;49.482;11.256;2022-10-16T07:56:51;16.50;99.90
20325;DHT22;10320;49.482;11.256;2022-10-16T07:59:16;16.50;99.90
20325;DHT22;10320;49.482;11.256;2022-10-16T08:01:42;16.60;99.90
20325;DHT22;10320;49.482;11.256;2022-10-16T08:04:08;16.70;99.90
20325;DHT22;10320;49.482;11.256;2022-10-16T08:06:39;16.80;99.90
20325;DHT22;10320;49.482;11.256;2022-10-16T08:09:06;16.90;99.90
20325;DHT22;10320;49.482;11.256;2022-10-16T08:11:32;17.00;99.90
20325;DHT22;10320;49.482;11.256;2022-10-16T08:13:57;17.10;99.90
20325;DHT22;10320;49.482;11.256;2022-10-16T08:16:23;17.20;99.90
20325;DHT22;10320;49.482;11.256;2022-10-16T08:18:49;17.30;99.90
20325;DHT22;10320;49.482;11.256;2022-10-16T08:21:19;17.40;99.90
20325;DHT22;10320;49.482;11.256;2022-10-16T08:23:45;17.50;99.90
20325;DHT22;10320;49.482;11.256;2022-10-16T08:26:11;17.50;99.90
20325;DHT22;10320;49.482;11.256;2022-10-16T08:28:38;17.60;99.90
20325;DHT22;10320;49.482;11.256;2022-10-16T08:31:14;17.60;99.90
20325;DHT22;10320;49.482;11.256;2022-10-16T08:33:44;17.60;99.90
20325;DHT22;10320;49.482;11.256;2022-10-16T08:36:12;17.60;99.90
20325;DHT22;10320;49.482;11.256;2022-10-16T08:38:38;17.70;99.90
20325;DHT22;10320;49.482;11.256;2022-10-16T08:49:12;18.20;99.90
20325;DHT22;10320;49.482;11.256;2022-10-16T08:51:41;18.40;99.90
20325;DHT22;10320;49.482;11.256;2022-10-16T08:54:34;18.40;99.90
20325;DHT22;10320;49.482;11.256;2022-10-16T08:57:20;18.50;99.90
20325;DHT22;10320;49.482;11.256;2022-10-16T08:59:46;18.50;99.90
20325;DHT22;10320;49.482;11.256;2022-10-16T09:05:54;18.60;99.90
20325;DHT22;10320;49.482;11.256;2022-10-16T09:08:55;18.80;99.90
20325;DHT22;10320;49.482;11.256;2022-10-16T09:17:40;19.30;99.90
20325;DHT22;10320;49.482;11.256;2022-10-16T09:22:39;19.50;99.90
20325;DHT22;10320;49.482;11.256;2022-10-16T09:25:19;19.70;99.90
20325;DHT22;10320;49.482;11.256;2022-10-16T09:27:51;19.80;99.90
20325;DHT22;10320;49.482;11.256;2022-10-16T09:30:20;20.00;99.90
20325;DHT22;10320;49.482;11.256;2022-10-16T09:32:49;20.10;99.90
20325;DHT22;10320;49.482;11.256;2022-10-16T09:35:22;20.20;99.90
20325;DHT22;10320;49.482;11.256;2022-10-16T09:37:50;20.30;99.90
20325;DHT22;10320;49.482;11.256;2022-10-16T09:40:38;20.30;99.90
20325;DHT22;10320;49.482;11.256;2022-10-16T09:46:04;20.30;99.90
20325;DHT22;10320;49.482;11.256;2022-10-16T09:48:42;20.30;99.90
20325;DHT22;10320;49.482;11.256;2022-10-16T09:51:30;20.10;99.90
20325;DHT22;10320;49.482;11.256;2022-10-16T09:53:59;19.90;99.90
20325;DHT22;10320;49.482;11.256;2022-10-16T09:56:33;19.80;99.90
20325;DHT22;10320;49.482;11.256;2022-10-16T09:59:08;19.50;99.90
20325;DHT22;10320;49.482;11.256;2022-10-16T10:01:51;19.40;99.90
20325;DHT22;10320;49.482;11.256;2022-10-16T10:04:19;19.30;99.90
20325;DHT22;10320;49.482;11.256;2022-10-16T10:06:52;19.20;99.90
20325;DHT22;10320;49.482;11.256;2022-10-16T10:09:39;19.10;99.90
20325;DHT22;10320;49.482;11.256;2022-10-16T10:12:14;19.10;99.90
20325;DHT22;10320;49.482;11.256;2022-10-16T10:14:46;19.10;99.90
20325;DHT22;10320;49.482;11.256;2022-10-16T10:17:13;19.20;99.90
20325;DHT22;10320;49.482;11.256;2022-10-16T10:22:44;19.60;99.90
20325;DHT22;10320;49.482;11.256;2022-10-16T10:35:38;20.70;99.90
20325;DHT22;10320;49.482;11.256;2022-10-16T10:46:17;21.50;99.90
20325;DHT22;10320;49.482;11.256;2022-10-16T10:52:02;21.50;99.90
20325;DHT22;10320;49.482;11.256;2022-10-16T10:54:47;21.60;99.90
20325;DHT22;10320;49.482;11.256;2022-10-16T11:03:09;21.70;99.90
20325;DHT22;10320;49.482;11.256;2022-10-16T11:08:35;21.90;99.90
20325;DHT22;10320;49.482;11.256;2022-10-16T11:11:14;21.90;99.90
20325;DHT22;10320;49.482;11.256;2022-10-16T11:16:30;21.80;99.90
20325;DHT22;10320;49.482;11.256;2022-10-16T11:19:11;21.80;99.90
20325;DHT22;10320;49.482;11.256;2022-10-16T11:21:53;21.70;99.90
20325;DHT22;10320;49.482;11.256;2022-10-16T11:24:24;21.70;99.90
20325;DHT22;10320;49.482;11.256;2022-10-16T11:26:56;21.90;99.90
20325;DHT22;10320;49.482;11.256;2022-10-16T11:29:30;22.00;99.90
20325;DHT22;10320;49.482;11.256;2022-10-16T11:32:18;22.30;99.90
20325;DHT22;10320;49.482;11.256;2022-10-16T11:34:49;22.50;99.90
20325;DHT22;10320;49.482;11.256;2022-10-16T11:37:36;22.60;99.90
20325;DHT22;10320;49.482;11.256;2022-10-16T11:40:23;22.70;99.90
20325;DHT22;10320;49.482;11.256;2022-10-16T11:43:06;22.80;99.90
20325;DHT22;10320;49.482;11.256;2022-10-16T11:45:43;22.80;99.90
20325;DHT22;10320;49.482;11.256;2022-10-16T11:51:11;22.80;99.90
20325;DHT22;10320;49.482;11.256;2022-10-16T11:53:46;22.70;99.90
20325;DHT22;10320;49.482;11.256;2022-10-16T11:56:17;22.70;99.90
20325;DHT22;10320;49.482;11.256;2022-10-16T11:58:58;22.70;99.90
20325;DHT22;10320;49.482;11.256;2022-10-16T12:05:03;23.00;99.90
20325;DHT22;10320;49.482;11.256;2022-10-16T12:07:37;23.00;99.90
20325;DHT22;10320;49.482;11.256;2022-10-16T12:10:25;23.10;99.90
20325;DHT22;10320;49.482;11.256;2022-10-16T12:12:51;23.00;99.90
20325;DHT22;10320;49.482;11.256;2022-10-16T12:15:26;22.90;99.90
20325;DHT22;10320;49.482;11.256;2022-10-16T12:17:54;22.90;99.90
20325;DHT22;10320;49.482;11.256;2022-10-16T12:22:53;22.70;99.90
20325;DHT22;10320;49.482;11.256;2022-10-16T12:25:29;22.60;99.90
20325;DHT22;10320;49.482;11.256;2022-10-16T12:30:38;22.00;99.90
20325;DHT22;10320;49.482;11.256;2022-10-16T12:33:22;21.90;99.90
20325;DHT22;10320;49.482;11.256;2022-10-16T12:35:48;21.80;99.90
20325;DHT22;10320;49.482;11.256;2022-10-16T12:38:20;21.60;99.90
20325;DHT22;10320;49.482;11.256;2022-10-16T12:41:01;21.50;99.90
20325;DHT22;10320;49.482;11.256;2022-10-16T12:43:48;21.40;99.90
20325;DHT22;10320;49.482;11.256;2022-10-16T12:48:40;21.20;99.90
20325;DHT22;10320;49.482;11.256;2022-10-16T12:51:33;21.20;99.90
20325;DHT22;10320;49.482;11.256;2022-10-16T12:56:47;21.10;99.90
20325;DHT22;10320;49.482;11.256;2022-10-16T13:11:00;21.30;99.90
20325;DHT22;10320;49.482;11.256;2022-10-16T13:16:22;21.70;99.90
20325;DHT22;10320;49.482;11.256;2022-10-16T13:19:19;21.90;99.90
20325;DHT22;10320;49.482;11.256;2022-10-16T13:22:03;22.20;99.90
20325;DHT22;10320;49.482;11.256;2022-10-16T13:26:57;22.60;99.90
20325;DHT22;10320;49.482;11.256;2022-10-16T13:29:31;22.90;99.90
20325;DHT22;10320;49.482;11.256;2022-10-16T13:31:58;23.00;99.90
20325;DHT22;10320;49.482;11.256;2022-10-16T13:34:26;23.00;99.90
20325;DHT22;10320;49.482;11.256;2022-10-16T13:36:53;22.90;99.90
20325;DHT22;10320;49.482;11.256;2022-10-16T13:39:30;22.70;99.90
20325;DHT22;10320;49.482;11.256;2022-10-16T13:42:03;22.60;99.90
20325;DHT22;10320;49.482;11.256;2022-10-16T13:44:44;22.30;99.90
20325;DHT22;10320;49.482;11.256;2022-10-16T13:47:22;22.20;99.90
20325;DHT22;10320;49.482;11.256;2022-10-16T13:50:11;22.00;99.90
20325;DHT22;10320;49.482;11.256;2022-10-16T13:52:37;21.80;99.90
20325;DHT22;10320;49.482;11.256;2022-10-16T13:55:09;21.70;99.90
20325;DHT22;10320;49.482;11.256;2022-10-16T13:57:35;21.80;99.90
20325;DHT22;10320;49.482;11.256;2022-10-16T14:00:01;22.00;99.90
20325;DHT22;10320;49.482;11.256;2022-10-16T14:04:56;22.50;99.90
20325;DHT22;10320;49.482;11.256;2022-10-16T14:07:32;22.50;99.90
20325;DHT22;10320;49.482;11.256;2022-10-16T14:10:07;22.50;99.90
20325;DHT22;10320;49.482;11.256;2022-10-16T14:12:44;22.30;99.90
20325;DHT22;10320;49.482;11.256;2022-10-16T14:15:17;22.20;99.90
20325;DHT22;10320;49.482;11.256;2022-10-16T14:17:47;22.10;99.90
20325;DHT22;10320;49.482;11.256;2022-10-16T14:20:15;22.00;99.90
20325;DHT22;10320;49.482;11.256;2022-10-16T14:22:43;22.00;99.90
20325;DHT22;10320;49.482;11.256;2022-10-16T14:25:25;21.80;99.90
20325;DHT22;10320;49.482;11.256;2022-10-16T14:30:28;21.70;99.90
20325;DHT22;10320;49.482;11.256;2022-10-16T14:32:59;21.70;99.90
20325;DHT22;10320;49.482;11.256;2022-10-16T14:35:34;21.70;99.90
20325;DHT22;10320;49.482;11.256;2022-10-16T14:38:02;21.70;99.90
20325;DHT22;10320;49.482;11.256;2022-10-16T14:40:31;21.60;99.90
20325;DHT22;10320;49.482;11.256;2022-10-16T14:42:59;21.70;99.90
20325;DHT22;10320;49.482;11.256;2022-10-16T14:45:28;21.80;99.90
20325;DHT22;10320;49.482;11.256;2022-10-16T14:48:01;22.40;99.90
20325;DHT22;10320;49.482;11.256;2022-10-16T14:50:28;23.10;99.90
20325;DHT22;10320;49.482;11.256;2022-10-16T14:52:54;23.30;99.90
20325;DHT22;10320;49.482;11.256;2022-10-16T14:55:20;23.20;99.90
20325;DHT22;10320;49.482;11.256;2022-10-16T14:57:46;23.00;99.90
20325;DHT22;10320;49.482;11.256;2022-10-16T15:00:23;22.70;99.90
20325;DHT22;10320;49.482;11.256;2022-10-16T15:02:50;22.40;99.90
20325;DHT22;10320;49.482;11.256;2022-10-16T15:05:22;22.00;99.90
20325;DHT22;10320;49.482;11.256;2022-10-16T15:07:50;21.80;99.90
20325;DHT22;10320;49.482;11.256;2022-10-16T15:10:20;21.60;99.90
20325;DHT22;10320;49.482;11.256;2022-10-16T15:12:46;21.40;99.90
20325;DHT22;10320;49.482;11.256;2022-10-16T15:18:16;21.10;99.90
20325;DHT22;10320;49.482;11.256;2022-10-16T15:20:47;20.90;99.90
20325;DHT22;10320;49.482;11.256;2022-10-16T15:23:15;20.80;99.90
20325;DHT22;10320;49.482;11.256;2022-10-16T15:25:43;20.70;99.90
20325;DHT22;10320;49.482;11.256;2022-10-16T15:28:10;20.60;99.90
20325;DHT22;10320;49.482;11.256;2022-10-16T15:30:37;20.40;99.90
20325;DHT22;10320;49.482;11.256;2022-10-16T15:33:04;20.20;99.90
20325;DHT22;10320;49.482;11.256;2022-10-16T15:35:30;20.00;99.90
20325;DHT22;10320;49.482;11.256;2022-10-16T15:37:56;19.80;99.90
20325;DHT22;10320;49.482;11.256;2022-10-16T15:40:22;19.60;99.90
20325;DHT22;10320;49.482;11.256;2022-10-16T15:42:49;19.50;99.90
20325;DHT22;10320;49.482;11.256;2022-10-16T15:45:15;19.30;99.90
20325;DHT22;10320;49.482;11.256;2022-10-16T20:21:28;19.10;99.90
20325;DHT22;10320;49.482;11.256;2022-10-16T20:23:55;13.70;99.90
20325;DHT22;10320;49.482;11.256;2022-10-16T20:26:22;13.60;99.90
20325;DHT22;10320;49.482;11.256;2022-10-16T20:28:51;13.50;99.90
20325;DHT22;10320;49.482;11.256;2022-10-16T20:31:20;13.40;99.90
20325;DHT22;10320;49.482;11.256;2022-10-16T20:33:50;13.40;99.90
20325;DHT22;10320;49.482;11.256;2022-10-16T20:36:17;13.30;99.90
20325;DHT22;10320;49.482;11.256;2022-10-16T20:38:43;13.20;99.90
20325;DHT22;10320;49.482;11.256;2022-10-16T20:41:10;13.20;99.90
20325;DHT22;10320;49.482;11.256;2022-10-16T20:43:40;13.20;99.90
20325;DHT22;10320;49.482;11.256;2022-10-16T20:46:08;13.20;99.90
20325;DHT22;10320;49.482;11.256;2022-10-16T20:48:34;13.10;99.90
20325;DHT22;10320;49.482;11.256;2022-10-16T20:51:10;13.10;99.90
20325;DHT22;10320;49.482;11.256;2022-10-16T20:53:36;13.00;99.90
20325;DHT22;10320;49.482;11.256;2022-10-16T20:56:02;13.00;99.90
20325;DHT22;10320;49.482;11.256;2022-10-16T20:58:28;13.00;99.90
20325;DHT22;10320;49.482;11.256;2022-10-16T21:00:53;13.00;99.90
20325;DHT22;10320;49.482;11.256;2022-10-16T21:03:19;12.90;99.90
20325;DHT22;10320;49.482;11.256;2022-10-16T21:05:45;12.90;99.90
20325;DHT22;10320;49.482;11.256;2022-10-16T21:08:10;12.90;99.90
20325;DHT22;10320;49.482;11.256;2022-10-16T21:10:36;12.90;99.90
20325;DHT22;10320;49.482;11.256;2022-10-16T21:13:01;12.80;99.90
20325;DHT22;10320;49.482;11.256;2022-10-16T21:15:28;12.80;99.90
20325;DHT22;10320;49.482;11.256;2022-10-16T21:17:54;12.80;99.90
20325;DHT22;10320;49.482;11.256;2022-10-16T21:20:19;12.70;99.90
20325;DHT22;10320;49.482;11.256;2022-10-16T21:22:45;12.70;99.90
20325;DHT22;10320;49.482;11.256;2022-10-16T21:25:10;12.60;99.90
20325;DHT22;10320;49.482;11.256;2022-10-16T21:27:37;12.60;99.90
20325;DHT22;10320;49.482;11.256;2022-10-16T21:30:06;12.60;99.90
20325;DHT22;10320;49.482;11.256;2022-10-16T21:32:37;12.50;99.90
20325;DHT22;10320;49.482;11.256;2022-10-16T21:35:04;12.50;99.90
20325;DHT22;10320;49.482;11.256;2022-10-16T21:37:30;12.50;99.90
20325;DHT22;10320;49.482;11.256;2022-10-16T21:39:56;12.50;99.90
20325;DHT22;10320;49.482;11.256;2022-10-16T21:42:22;12.50;99.90
20325;DHT22;10320;49.482;11.256;2022-10-16T21:44:47;12.40;99.90
20325;DHT22;10320;49.482;11.256;2022-10-16T21:47:13;12.50;99.90
20325;DHT22;10320;49.482;11.256;2022-10-16T21:49:39;12.50;99.90
20325;DHT22;10320;49.482;11.256;2022-10-16T21:52:05;12.40;99.90
20325;DHT22;10320;49.482;11.256;2022-10-16T21:54:30;12.40;99.90
20325;DHT22;10320;49.482;11.256;2022-10-16T21:56:56;12.40;99.90